ウィーン の空港の天気 - METARとTAF

ウィーン国際空港 ( LOWW / VIE ) - オーストリア ウィーン
飛行場実況気象(Metar)
観測時間11/27 09:20 CET (11/27 08:20 UTC)
風向・風速不定 1m/s
視程10km以上
天気現象
全天の4割程度の雲 雲底高度 1340m
気温5℃
湿度87%
気圧1030hPa
METARLOWW 270820Z VRB02KT 9999 SCT044 05/03 Q1030 NOSIG
過去の天気等 Google飛行場航空写真 Wunderground天気予報

過去48時間のMETAR

飛行場予報(TAF)
発表時間: 11/27 09:15 CET (11/27 08:15 UTC)
予報対象時間: 27日10時 CET ~ 28日16時 CET
風向・風速北北西 3m/s
視程10km以上
全天の4割程度の雲 雲底高度 610m
27日18時 CET ~ 27日20時 CET に徐々に
風向・風速南東 4m/s
27日20時 CET ~ 28日7時 CET に一時的に
視程2000m
天気現象散在した霧
全天の4割程度の雲 雲底高度 60m
全天を覆う雲 雲底高度 90m
28日7時 CET ~ 28日10時 CET に徐々に
風向・風速南南東 8m/s 瞬間風速 13m/s
TAF LOWW 270815Z 2709/2815 34005KT 9999 SCT020 TX07/2713Z TN02/2803Z
BECMG 2717/2719 14007KT
TEMPO 2719/2806 2000 BCFG SCT002 OVC003
BECMG 2806/2809 16015G25KT